Darstellungsparameter: Aktuell verwendete Einstellungen:
Skalierung der Graphiken ... ?
xyx+y,   Skalierungsfaktor:      Skalierung: Modus: x, Faktor: 1
Darstellungszeitraum ... ?
Vom - - bis: - -   Zeitraum: 09.09.2010 - 09.09.2010
Min/Max/Avg-Anzeige ... ?
Zeige MMA aktuell
Zeige MMA Monat
Zeige MMA alles
Zeige --A aktuell
Zeige --A Monat
Zeige --A alles
Keine MMA-Anzeige
MMA:
Minimum Maximum Average (ber die Originaldaten)
MMA-Basis: 09.09.2010 - 09.09.2010
Quicknavigation für Darstellung... ?
Tage:      1T, 2T, 3T, 5T -1T -2T -3T -5T +1T +2T +3T +5T
Wochen: 1W, 2W, 3W -1W -2W -3W +1W +2W +3W
Monate: 1M, 3M, 6M -1M -3M -6M +1M +3M +6M
Jahre:    1J, 3J, 5J, 10J -1J -3J -5J -10J +1J +3J +5J +10J
Nutze für die Darstellung ... ?
Originaldaten oder Mittelwerte auf ...
Stundenbasis Tagesbasis Wochenbasis
Monatsbasis Jahresbasis      Datenbasis: Original-Daten
Darstellen als:
Statistik (Auto) Statistik J:M      Darstellung:
Zur Graphik,    zurück zur Übersicht aller Sensoren.
 
Tabellarische Datenbersicht: ?
 
Sensor: Nr:Datum:Temp:Abs-Feuchte:Windchill:Wind:
Aussen-T/F 1 09-09-2010 00:07:03 14.4 C 10.14 g/m*3 14.4 C 0 km/h
2 09-09-2010 00:19:03 14.4 C 10.14 g/m*3 14.4 C 0 km/h
3 09-09-2010 00:31:03 14.1 C 10.07 g/m*3 14.1 C 0 km/h
4 09-09-2010 00:43:03 14.5 C 10.32 g/m*3 14.5 C 0 km/h
5 09-09-2010 00:55:03 14.5 C 10.32 g/m*3 14.5 C 0 km/h
6 09-09-2010 01:07:03 14.8 C 10.39 g/m*3 14.8 C 0 km/h
7 09-09-2010 01:19:03 15 C 10 g/m*3 15 C 0 km/h
8 09-09-2010 01:31:03 15.1 C 10.06 g/m*3 15.1 C 0 km/h
9 09-09-2010 01:43:03 15.2 C 9.99 g/m*3 15.2 C 0 km/h
10 09-09-2010 01:55:03 15.1 C 9.93 g/m*3 15.1 C 0 km/h
11 09-09-2010 02:07:03 15.2 C 9.99 g/m*3 15.2 C 0 km/h
12 09-09-2010 02:19:03 15.1 C 9.93 g/m*3 15.1 C 0 km/h
13 09-09-2010 02:31:03 15.1 C 9.93 g/m*3 15.1 C 0 km/h
14 09-09-2010 02:43:03 15.1 C 9.93 g/m*3 15.1 C 0 km/h
15 09-09-2010 02:55:03 15.2 C 9.86 g/m*3 15.2 C 0 km/h
16 09-09-2010 03:07:03 15.2 C 9.86 g/m*3 15.2 C 0 km/h
17 09-09-2010 03:19:03 15.3 C 9.79 g/m*3 15.3 C 0 km/h
18 09-09-2010 03:31:03 15.3 C 9.79 g/m*3 15.3 C 0 km/h
19 09-09-2010 03:43:03 15.4 C 9.72 g/m*3 15.4 C 0 km/h
20 09-09-2010 03:55:04 15.4 C 9.72 g/m*3 15.4 C 0 km/h
21 09-09-2010 04:07:04 15.4 C 9.59 g/m*3 15.4 C 0 km/h
22 09-09-2010 04:19:04 15.2 C 9.48 g/m*3 15.2 C 0 km/h
23 09-09-2010 04:31:04 15.2 C 9.35 g/m*3 15.2 C 0 km/h
24 09-09-2010 04:43:04 15.2 C 9.22 g/m*3 15.2 C 0 km/h
25 09-09-2010 04:55:04 15.1 C 9.03 g/m*3 15.1 C 0 km/h
Sensor: Nr:Datum:Temp:Abs-Feuchte:Windchill:Wind:
Aussen-T/F 26 09-09-2010 05:07:04 14.9 C 9.05 g/m*3 14.9 C 0 km/h
27 09-09-2010 05:19:04 14.9 C 9.05 g/m*3 14.9 C 0 km/h
28 09-09-2010 05:31:04 14.9 C 9.05 g/m*3 14.9 C 0 km/h
29 09-09-2010 05:43:04 14.9 C 9.05 g/m*3 14.9 C 0 km/h
30 09-09-2010 05:55:04 14.9 C 8.92 g/m*3 14.9 C 0 km/h
31 09-09-2010 06:07:04 14.8 C 8.87 g/m*3 14.8 C 0 km/h
32 09-09-2010 06:19:04 14.8 C 8.87 g/m*3 14.8 C 0 km/h
33 09-09-2010 06:31:04 14.8 C 8.87 g/m*3 14.8 C 0 km/h
34 09-09-2010 06:43:04 14.8 C 8.87 g/m*3 14.8 C 0 km/h
35 09-09-2010 06:55:04 14.7 C 8.94 g/m*3 14.7 C 0 km/h
36 09-09-2010 07:07:04 14.5 C 9.08 g/m*3 14.5 C 0 km/h
37 09-09-2010 07:19:04 14.5 C 9.08 g/m*3 14.5 C 0 km/h
38 09-09-2010 07:31:04 14.6 C 9.13 g/m*3 14.6 C 0 km/h
39 09-09-2010 07:43:04 14.6 C 9.01 g/m*3 14.6 C 0 km/h
40 09-09-2010 07:55:04 14.7 C 9.07 g/m*3 14.7 C 0 km/h
41 09-09-2010 08:07:02 14.7 C 9.07 g/m*3 14.7 C 0 km/h
42 09-09-2010 08:19:02 14.8 C 9.12 g/m*3 14.8 C 0 km/h
43 09-09-2010 08:31:02 14.8 C 9.12 g/m*3 14.8 C 0 km/h
44 09-09-2010 08:43:02 14.8 C 9.12 g/m*3 14.8 C 0 km/h
45 09-09-2010 08:55:02 14.9 C 9.05 g/m*3 14.9 C 0 km/h
46 09-09-2010 09:07:02 14.9 C 9.05 g/m*3 14.9 C 0 km/h
47 09-09-2010 09:19:03 14.9 C 9.05 g/m*3 14.9 C 0 km/h
48 09-09-2010 09:31:02 15.2 C 9.09 g/m*3 15.2 C 0 km/h
49 09-09-2010 09:43:02 15.5 C 9.12 g/m*3 15.5 C 0 km/h
50 09-09-2010 09:55:01 15.8 C 9.15 g/m*3 15.8 C 0 km/h
Sensor: Nr:Datum:Temp:Abs-Feuchte:Windchill:Wind:
Aussen-T/F 51 09-09-2010 10:07:02 16 C 8.99 g/m*3 16 C 0 km/h
52 09-09-2010 10:19:02 16.4 C 9.07 g/m*3 16.4 C 0 km/h
53 09-09-2010 10:31:01 16.8 C 9.15 g/m*3 16.8 C 0 km/h
54 09-09-2010 10:43:01 17.2 C 9.08 g/m*3 17.2 C 0 km/h
55 09-09-2010 10:55:02 17.4 C 9.19 g/m*3 17.4 C 0 km/h
56 09-09-2010 11:07:01 17.5 C 9.09 g/m*3 17.5 C 0 km/h
57 09-09-2010 11:19:02 17.5 C 9.09 g/m*3 17.5 C 0 km/h
58 09-09-2010 11:31:02 17.8 C 8.8 g/m*3 17.8 C 0 km/h
59 09-09-2010 11:43:02 17.8 C 8.65 g/m*3 17.8 C 0 km/h
60 09-09-2010 11:55:02 18.3 C 8.76 g/m*3 18.3 C 0 km/h
61 09-09-2010 12:07:01 18.5 C 8.23 g/m*3 18.5 C 0 km/h
62 09-09-2010 12:19:02 18.6 C 8.28 g/m*3 18.6 C 0 km/h
63 09-09-2010 12:31:02 18.6 C 8.12 g/m*3 18.6 C 0 km/h
64 09-09-2010 12:43:02 19 C 8.15 g/m*3 19 C 0 km/h
65 09-09-2010 12:55:02 18.5 C 8.07 g/m*3 18.5 C 0 km/h
66 09-09-2010 13:07:02 18.6 C 8.28 g/m*3 18.6 C 0 km/h
67 09-09-2010 13:19:02 18.7 C 8.17 g/m*3 18.7 C 0 km/h
68 09-09-2010 13:31:02 18.7 C 8.01 g/m*3 18.7 C 0 km/h
69 09-09-2010 13:43:02 19 C 8.15 g/m*3 19 C 0 km/h
70 09-09-2010 13:55:02 19 C 8.47 g/m*3 19 C 0 km/h
71 09-09-2010 14:07:02 18.6 C 8.12 g/m*3 18.6 C 0 km/h
72 09-09-2010 14:19:02 18.4 C 8.18 g/m*3 18.4 C 0 km/h
73 09-09-2010 14:31:02 18.8 C 8.86 g/m*3 18.8 C 0 km/h
74 09-09-2010 14:43:02 19.3 C 8.79 g/m*3 19.3 C 0 km/h
75 09-09-2010 14:55:02 19.8 C 9.05 g/m*3 19.8 C 0 km/h
Sensor: Nr:Datum:Temp:Abs-Feuchte:Windchill:Wind:
Aussen-T/F 76 09-09-2010 15:07:02 20.3 C 8.97 g/m*3 20.3 C 0 km/h
77 09-09-2010 15:19:02 20.3 C 8.97 g/m*3 20.3 C 0 km/h
78 09-09-2010 15:31:02 19.5 C 8.89 g/m*3 19.5 C 0 km/h
79 09-09-2010 15:43:02 18.7 C 9.29 g/m*3 18.7 C 0 km/h
80 09-09-2010 15:55:02 18.1 C 9.43 g/m*3 18.1 C 0 km/h
81 09-09-2010 16:07:01 17.7 C 9.51 g/m*3 17.7 C 0 km/h
82 09-09-2010 16:19:02 16.1 C 10.14 g/m*3 16.1 C 0 km/h
83 09-09-2010 16:31:01 16.1 C 10.42 g/m*3 16.1 C 0 km/h
84 09-09-2010 16:43:01 17.1 C 11.79 g/m*3 17.1 C 0 km/h
85 09-09-2010 16:55:02 18.5 C 12.82 g/m*3 18.5 C 0 km/h
86 09-09-2010 17:07:02 18.2 C 12.28 g/m*3 18.2 C 0 km/h
87 09-09-2010 17:19:02 18 C 12.13 g/m*3 18 C 0 km/h
88 09-09-2010 17:31:02 17.9 C 11.45 g/m*3 17.9 C 0 km/h
89 09-09-2010 17:43:02 17.8 C 11.08 g/m*3 17.8 C 0 km/h
90 09-09-2010 17:55:02 17.7 C 11.16 g/m*3 17.7 C 0 km/h
91 09-09-2010 18:07:02 17.7 C 11.32 g/m*3 17.7 C 0 km/h
92 09-09-2010 18:19:01 17.7 C 10.86 g/m*3 17.7 C 0 km/h
93 09-09-2010 18:31:02 17.7 C 10.41 g/m*3 17.7 C 0 km/h
94 09-09-2010 18:43:03 17.9 C 10.38 g/m*3 17.9 C 0 km/h
95 09-09-2010 18:55:02 17.5 C 9.39 g/m*3 17.5 C 0 km/h
96 09-09-2010 19:07:02 17.2 C 9.37 g/m*3 17.2 C 0 km/h
97 09-09-2010 19:19:01 16.8 C 9.44 g/m*3 16.8 C 0 km/h
98 09-09-2010 19:31:02 16.5 C 9.55 g/m*3 16.5 C 0 km/h
99 09-09-2010 19:43:02 16.2 C 9.52 g/m*3 16.2 C 0 km/h
100 09-09-2010 19:55:01 16 C 9.4 g/m*3 16 C 0 km/h
Sensor: Nr:Datum:Temp:Abs-Feuchte:Windchill:Wind:
Aussen-T/F 101 09-09-2010 20:07:02 15.9 C 9.48 g/m*3 15.9 C 0 km/h
102 09-09-2010 20:19:02 15.8 C 9.42 g/m*3 15.8 C 0 km/h
103 09-09-2010 20:31:01 15.4 C 9.72 g/m*3 15.4 C 0 km/h
104 09-09-2010 20:43:01 15 C 10 g/m*3 15 C 0 km/h
105 09-09-2010 20:55:01 14.9 C 10.2 g/m*3 14.9 C 0 km/h
106 09-09-2010 21:07:01 14.9 C 10.32 g/m*3 14.9 C 0 km/h
107 09-09-2010 21:19:02 14.9 C 10.32 g/m*3 14.9 C 0 km/h
108 09-09-2010 21:31:01 14.8 C 10.26 g/m*3 14.8 C 0 km/h
109 09-09-2010 21:43:01 14.7 C 10.2 g/m*3 14.7 C 0 km/h
110 09-09-2010 21:55:02 14.7 C 10.2 g/m*3 14.7 C 0 km/h
111 09-09-2010 22:07:02 14.7 C 10.2 g/m*3 14.7 C 0 km/h
112 09-09-2010 22:19:01 14.8 C 10.13 g/m*3 14.8 C 0 km/h
113 09-09-2010 22:31:01 14.8 C 10.26 g/m*3 14.8 C 0 km/h
114 09-09-2010 22:43:01 14.7 C 10.2 g/m*3 14.7 C 0 km/h
115 09-09-2010 22:56:02 14.7 C 10.07 g/m*3 14.7 C 0 km/h
116 09-09-2010 23:08:02 14.8 C 10.01 g/m*3 14.8 C 0 km/h
117 09-09-2010 23:20:03 15 C 9.75 g/m*3 15 C 0 km/h
118 09-09-2010 23:32:03 15 C 9.62 g/m*3 15 C 0 km/h
119 09-09-2010 23:44:03 15.1 C 9.68 g/m*3 15.1 C 0 km/h
120 09-09-2010 23:56:03 15 C 9.49 g/m*3 15 C 0 km/h

Legende:
   Min
   Max


Maximal/Minimal-Werte vom 09.09.2010 - 09.09.2010

Sensor Min Max Avg
Temp
(Aussen-T/F)
14.1 °C
09-09-2010  00:31:03
20.3 °C
09-09-2010  15:07:02
16.21 °C
Abs-Feuchte
(Aussen-T/F)
8.01 g/m*3
09-09-2010  13:31:02
12.82 g/m*3
09-09-2010  16:55:02
9.46 g/m*3
Windchill
(Aussen-T/F)
14.1 C
09-09-2010  00:31:03
20.3 C
09-09-2010  15:07:02
16.07 C

Die Daten stammen von einer Davis Vantage Pro 2 Wetter-Station und werden unter Linux mit der Software wview2wettercgi und aufbereitet. Alle Angaben erfolgen ohne Gewähr für ihre Vollständigkeit oder Richtigkeit.
Kontakt: Rainer Krienke krienke@uni-koblenz.de . Meine Webseiten an der Uni Koblenz oder privat.
Version: $Revision: 0.78 $